sensor_id;sensor_type;location;lat;lon;timestamp;temperature;humidity
4081;DHT22;2055;50.074;8.436;2023-05-20T00:01:32;14.80;99.90
4081;DHT22;2055;50.074;8.436;2023-05-20T00:03:58;14.80;99.90
4081;DHT22;2055;50.074;8.436;2023-05-20T00:06:23;14.80;99.90
4081;DHT22;2055;50.074;8.436;2023-05-20T00:08:49;14.80;99.90
4081;DHT22;2055;50.074;8.436;2023-05-20T00:11:14;14.80;99.90
4081;DHT22;2055;50.074;8.436;2023-05-20T00:13:40;14.80;99.90
4081;DHT22;2055;50.074;8.436;2023-05-20T00:16:05;14.90;99.90
4081;DHT22;2055;50.074;8.436;2023-05-20T00:18:31;14.80;99.90
4081;DHT22;2055;50.074;8.436;2023-05-20T00:20:58;14.80;99.90
4081;DHT22;2055;50.074;8.436;2023-05-20T00:23:23;14.80;99.90
4081;DHT22;2055;50.074;8.436;2023-05-20T00:25:49;14.80;99.90
4081;DHT22;2055;50.074;8.436;2023-05-20T00:28:14;14.80;99.90
4081;DHT22;2055;50.074;8.436;2023-05-20T00:30:40;14.70;99.90
4081;DHT22;2055;50.074;8.436;2023-05-20T00:33:06;14.70;99.90
4081;DHT22;2055;50.074;8.436;2023-05-20T00:35:32;14.70;99.90
4081;DHT22;2055;50.074;8.436;2023-05-20T00:37:57;14.60;99.90
4081;DHT22;2055;50.074;8.436;2023-05-20T00:40:23;14.60;99.90
4081;DHT22;2055;50.074;8.436;2023-05-20T00:42:49;14.70;99.90
4081;DHT22;2055;50.074;8.436;2023-05-20T00:45:15;14.60;99.90
4081;DHT22;2055;50.074;8.436;2023-05-20T00:47:41;14.60;99.90
4081;DHT22;2055;50.074;8.436;2023-05-20T00:50:08;14.50;99.90
4081;DHT22;2055;50.074;8.436;2023-05-20T00:52:35;13.90;99.90
4081;DHT22;2055;50.074;8.436;2023-05-20T00:55:02;14.40;99.90
4081;DHT22;2055;50.074;8.436;2023-05-20T00:57:28;14.30;99.90
4081;DHT22;2055;50.074;8.436;2023-05-20T00:59:53;14.40;99.90
4081;DHT22;2055;50.074;8.436;2023-05-20T01:02:19;14.40;99.90
4081;DHT22;2055;50.074;8.436;2023-05-20T01:04:45;14.30;99.90
4081;DHT22;2055;50.074;8.436;2023-05-20T01:07:12;14.30;99.90
4081;DHT22;2055;50.074;8.436;2023-05-20T01:09:38;14.30;99.90
4081;DHT22;2055;50.074;8.436;2023-05-20T01:12:12;14.30;99.90
4081;DHT22;2055;50.074;8.436;2023-05-20T01:14:50;14.20;99.90
4081;DHT22;2055;50.074;8.436;2023-05-20T01:17:22;14.10;99.90
4081;DHT22;2055;50.074;8.436;2023-05-20T01:19:51;14.10;99.90
4081;DHT22;2055;50.074;8.436;2023-05-20T01:22:18;14.00;99.90
4081;DHT22;2055;50.074;8.436;2023-05-20T01:24:45;14.00;99.90
4081;DHT22;2055;50.074;8.436;2023-05-20T01:27:14;14.00;99.90
4081;DHT22;2055;50.074;8.436;2023-05-20T01:29:41;13.90;99.90
4081;DHT22;2055;50.074;8.436;2023-05-20T01:32:10;13.90;99.90
4081;DHT22;2055;50.074;8.436;2023-05-20T01:34:37;13.80;99.90
4081;DHT22;2055;50.074;8.436;2023-05-20T01:37:04;13.70;99.90
4081;DHT22;2055;50.074;8.436;2023-05-20T01:39:33;13.70;99.90
4081;DHT22;2055;50.074;8.436;2023-05-20T01:41:59;13.70;99.90
4081;DHT22;2055;50.074;8.436;2023-05-20T01:44:26;13.80;99.90
4081;DHT22;2055;50.074;8.436;2023-05-20T01:46:54;13.60;99.90
4081;DHT22;2055;50.074;8.436;2023-05-20T01:49:20;13.50;99.90
4081;DHT22;2055;50.074;8.436;2023-05-20T01:51:45;13.50;99.90
4081;DHT22;2055;50.074;8.436;2023-05-20T01:54:11;13.40;99.90
4081;DHT22;2055;50.074;8.436;2023-05-20T01:56:37;13.50;99.90
4081;DHT22;2055;50.074;8.436;2023-05-20T01:59:02;13.30;99.90
4081;DHT22;2055;50.074;8.436;2023-05-20T02:01:28;13.30;99.90
4081;DHT22;2055;50.074;8.436;2023-05-20T02:03:53;13.30;99.90
4081;DHT22;2055;50.074;8.436;2023-05-20T02:06:19;13.40;99.90
4081;DHT22;2055;50.074;8.436;2023-05-20T02:08:44;13.50;99.90
4081;DHT22;2055;50.074;8.436;2023-05-20T02:11:10;13.40;99.90
4081;DHT22;2055;50.074;8.436;2023-05-20T02:13:35;13.40;99.90
4081;DHT22;2055;50.074;8.436;2023-05-20T02:16:01;13.40;99.90
4081;DHT22;2055;50.074;8.436;2023-05-20T02:18:26;13.30;99.90
4081;DHT22;2055;50.074;8.436;2023-05-20T02:20:52;13.40;99.90
4081;DHT22;2055;50.074;8.436;2023-05-20T02:23:17;13.30;99.90
4081;DHT22;2055;50.074;8.436;2023-05-20T02:25:43;13.30;99.90
4081;DHT22;2055;50.074;8.436;2023-05-20T02:28:09;13.30;99.90
4081;DHT22;2055;50.074;8.436;2023-05-20T02:30:38;13.30;99.90
4081;DHT22;2055;50.074;8.436;2023-05-20T02:33:03;13.20;99.90
4081;DHT22;2055;50.074;8.436;2023-05-20T02:35:29;13.30;99.90
4081;DHT22;2055;50.074;8.436;2023-05-20T02:37:55;13.30;99.90
4081;DHT22;2055;50.074;8.436;2023-05-20T02:40:21;13.30;99.90
4081;DHT22;2055;50.074;8.436;2023-05-20T02:42:47;13.60;99.90
4081;DHT22;2055;50.074;8.436;2023-05-20T02:45:13;13.30;99.90
4081;DHT22;2055;50.074;8.436;2023-05-20T02:47:39;13.40;99.90
4081;DHT22;2055;50.074;8.436;2023-05-20T02:50:05;13.40;99.90
4081;DHT22;2055;50.074;8.436;2023-05-20T02:52:31;13.40;99.90
4081;DHT22;2055;50.074;8.436;2023-05-20T02:54:57;13.50;99.90
4081;DHT22;2055;50.074;8.436;2023-05-20T02:57:22;13.50;99.90
4081;DHT22;2055;50.074;8.436;2023-05-20T02:59:48;13.50;99.90
4081;DHT22;2055;50.074;8.436;2023-05-20T03:02:13;13.50;99.90
4081;DHT22;2055;50.074;8.436;2023-05-20T03:04:39;13.60;99.90
4081;DHT22;2055;50.074;8.436;2023-05-20T03:07:05;13.60;99.90
4081;DHT22;2055;50.074;8.436;2023-05-20T03:09:32;13.60;99.90
4081;DHT22;2055;50.074;8.436;2023-05-20T03:11:57;13.70;99.90
4081;DHT22;2055;50.074;8.436;2023-05-20T03:14:23;13.70;99.90
4081;DHT22;2055;50.074;8.436;2023-05-20T03:16:48;13.70;99.90
4081;DHT22;2055;50.074;8.436;2023-05-20T03:19:14;13.80;99.90
4081;DHT22;2055;50.074;8.436;2023-05-20T03:21:40;13.80;99.90
4081;DHT22;2055;50.074;8.436;2023-05-20T03:24:08;13.80;99.90
4081;DHT22;2055;50.074;8.436;2023-05-20T03:26:35;13.80;99.90
4081;DHT22;2055;50.074;8.436;2023-05-20T03:29:02;13.80;99.90
4081;DHT22;2055;50.074;8.436;2023-05-20T03:31:28;13.90;99.90
4081;DHT22;2055;50.074;8.436;2023-05-20T03:33:54;13.90;99.90
4081;DHT22;2055;50.074;8.436;2023-05-20T03:36:19;14.00;99.90
4081;DHT22;2055;50.074;8.436;2023-05-20T03:38:45;14.00;99.90
4081;DHT22;2055;50.074;8.436;2023-05-20T03:41:10;14.00;99.90
4081;DHT22;2055;50.074;8.436;2023-05-20T03:43:36;14.00;99.90
4081;DHT22;2055;50.074;8.436;2023-05-20T03:46:02;14.00;99.90
4081;DHT22;2055;50.074;8.436;2023-05-20T03:48:27;14.00;99.90
4081;DHT22;2055;50.074;8.436;2023-05-20T03:50:53;13.90;99.90
4081;DHT22;2055;50.074;8.436;2023-05-20T03:53:18;14.00;99.90
4081;DHT22;2055;50.074;8.436;2023-05-20T03:55:45;13.80;99.90
4081;DHT22;2055;50.074;8.436;2023-05-20T03:58:11;13.70;99.90
4081;DHT22;2055;50.074;8.436;2023-05-20T04:00:39;13.70;99.90
4081;DHT22;2055;50.074;8.436;2023-05-20T04:03:05;13.70;99.90
4081;DHT22;2055;50.074;8.436;2023-05-20T04:05:31;13.70;99.90
4081;DHT22;2055;50.074;8.436;2023-05-20T04:07:56;13.70;99.90
4081;DHT22;2055;50.074;8.436;2023-05-20T04:10:22;13.70;99.90
4081;DHT22;2055;50.074;8.436;2023-05-20T04:12:48;13.70;99.90
4081;DHT22;2055;50.074;8.436;2023-05-20T04:15:14;13.70;99.90
4081;DHT22;2055;50.074;8.436;2023-05-20T04:17:40;13.70;99.90
4081;DHT22;2055;50.074;8.436;2023-05-20T04:20:07;13.70;99.90
4081;DHT22;2055;50.074;8.436;2023-05-20T04:22:33;13.70;99.90
4081;DHT22;2055;50.074;8.436;2023-05-20T04:24:59;13.80;99.90
4081;DHT22;2055;50.074;8.436;2023-05-20T04:27:24;13.80;99.90
4081;DHT22;2055;50.074;8.436;2023-05-20T04:29:51;13.90;99.90
4081;DHT22;2055;50.074;8.436;2023-05-20T04:32:18;13.90;99.90
4081;DHT22;2055;50.074;8.436;2023-05-20T04:34:44;14.00;99.90
4081;DHT22;2055;50.074;8.436;2023-05-20T04:37:11;14.00;99.90
4081;DHT22;2055;50.074;8.436;2023-05-20T04:39:37;14.00;99.90
4081;DHT22;2055;50.074;8.436;2023-05-20T04:42:03;14.10;99.90
4081;DHT22;2055;50.074;8.436;2023-05-20T04:44:29;14.10;99.90
4081;DHT22;2055;50.074;8.436;2023-05-20T04:46:56;14.20;99.90
4081;DHT22;2055;50.074;8.436;2023-05-20T04:49:24;14.10;99.90
4081;DHT22;2055;50.074;8.436;2023-05-20T04:51:59;14.20;99.90
4081;DHT22;2055;50.074;8.436;2023-05-20T04:54:25;14.20;99.90
4081;DHT22;2055;50.074;8.436;2023-05-20T04:56:50;14.20;99.90
4081;DHT22;2055;50.074;8.436;2023-05-20T04:59:16;14.20;99.90
4081;DHT22;2055;50.074;8.436;2023-05-20T05:01:42;14.20;99.90
4081;DHT22;2055;50.074;8.436;2023-05-20T05:04:08;14.20;99.90
4081;DHT22;2055;50.074;8.436;2023-05-20T05:06:33;14.20;99.90
4081;DHT22;2055;50.074;8.436;2023-05-20T05:08:59;14.20;99.90
4081;DHT22;2055;50.074;8.436;2023-05-20T05:11:24;14.20;99.90
4081;DHT22;2055;50.074;8.436;2023-05-20T05:13:50;14.20;99.90
4081;DHT22;2055;50.074;8.436;2023-05-20T05:16:16;14.20;99.90
4081;DHT22;2055;50.074;8.436;2023-05-20T05:18:41;14.20;99.90
4081;DHT22;2055;50.074;8.436;2023-05-20T05:21:07;14.30;99.90
4081;DHT22;2055;50.074;8.436;2023-05-20T05:23:32;14.40;99.90
4081;DHT22;2055;50.074;8.436;2023-05-20T05:25:58;14.40;99.90
4081;DHT22;2055;50.074;8.436;2023-05-20T05:28:24;14.40;99.90
4081;DHT22;2055;50.074;8.436;2023-05-20T05:30:49;14.40;99.90
4081;DHT22;2055;50.074;8.436;2023-05-20T05:33:15;14.50;99.90
4081;DHT22;2055;50.074;8.436;2023-05-20T05:35:41;14.50;99.90
4081;DHT22;2055;50.074;8.436;2023-05-20T05:38:08;14.50;99.90
4081;DHT22;2055;50.074;8.436;2023-05-20T05:40:34;14.60;99.90
4081;DHT22;2055;50.074;8.436;2023-05-20T05:43:00;14.80;99.90
4081;DHT22;2055;50.074;8.436;2023-05-20T05:45:25;15.00;99.90
4081;DHT22;2055;50.074;8.436;2023-05-20T05:47:51;15.20;99.90
4081;DHT22;2055;50.074;8.436;2023-05-20T05:50:16;15.40;99.90
4081;DHT22;2055;50.074;8.436;2023-05-20T05:52:42;15.50;99.90
4081;DHT22;2055;50.074;8.436;2023-05-20T05:55:09;15.60;99.90
4081;DHT22;2055;50.074;8.436;2023-05-20T05:57:34;15.60;99.90
4081;DHT22;2055;50.074;8.436;2023-05-20T06:00:00;15.50;99.90
4081;DHT22;2055;50.074;8.436;2023-05-20T06:02:26;15.50;99.90
4081;DHT22;2055;50.074;8.436;2023-05-20T06:04:51;15.50;99.90
4081;DHT22;2055;50.074;8.436;2023-05-20T06:07:17;15.40;99.90
4081;DHT22;2055;50.074;8.436;2023-05-20T06:09:43;15.30;99.90
4081;DHT22;2055;50.074;8.436;2023-05-20T06:12:09;15.20;99.90
4081;DHT22;2055;50.074;8.436;2023-05-20T06:14:34;15.10;99.90
4081;DHT22;2055;50.074;8.436;2023-05-20T06:17:00;15.50;99.90
4081;DHT22;2055;50.074;8.436;2023-05-20T06:19:26;15.30;99.90
4081;DHT22;2055;50.074;8.436;2023-05-20T06:21:52;15.60;99.90
4081;DHT22;2055;50.074;8.436;2023-05-20T06:24:17;15.70;99.90
4081;DHT22;2055;50.074;8.436;2023-05-20T06:26:43;15.70;99.90
4081;DHT22;2055;50.074;8.436;2023-05-20T06:29:10;15.80;99.90
4081;DHT22;2055;50.074;8.436;2023-05-20T06:31:36;15.90;99.90
4081;DHT22;2055;50.074;8.436;2023-05-20T06:34:01;15.90;99.90
4081;DHT22;2055;50.074;8.436;2023-05-20T06:36:27;15.90;99.90
4081;DHT22;2055;50.074;8.436;2023-05-20T06:38:53;15.80;99.90
4081;DHT22;2055;50.074;8.436;2023-05-20T06:41:19;15.80;99.90
4081;DHT22;2055;50.074;8.436;2023-05-20T06:43:47;15.80;99.90
4081;DHT22;2055;50.074;8.436;2023-05-20T06:46:13;15.80;99.90
4081;DHT22;2055;50.074;8.436;2023-05-20T06:48:38;15.80;99.90
4081;DHT22;2055;50.074;8.436;2023-05-20T06:51:06;15.80;99.90
4081;DHT22;2055;50.074;8.436;2023-05-20T06:53:32;15.80;99.90
4081;DHT22;2055;50.074;8.436;2023-05-20T06:55:57;16.00;99.90
4081;DHT22;2055;50.074;8.436;2023-05-20T06:58:23;16.10;99.90
4081;DHT22;2055;50.074;8.436;2023-05-20T07:00:50;16.20;99.90
4081;DHT22;2055;50.074;8.436;2023-05-20T07:03:16;16.20;99.90
4081;DHT22;2055;50.074;8.436;2023-05-20T07:05:41;16.00;99.90
4081;DHT22;2055;50.074;8.436;2023-05-20T07:08:07;16.10;99.90
4081;DHT22;2055;50.074;8.436;2023-05-20T07:10:34;16.10;99.90
4081;DHT22;2055;50.074;8.436;2023-05-20T07:13:00;16.00;99.90
4081;DHT22;2055;50.074;8.436;2023-05-20T07:15:26;16.00;99.90
4081;DHT22;2055;50.074;8.436;2023-05-20T07:17:51;16.10;99.90
4081;DHT22;2055;50.074;8.436;2023-05-20T07:20:17;16.20;99.90
4081;DHT22;2055;50.074;8.436;2023-05-20T07:22:44;16.30;99.90
4081;DHT22;2055;50.074;8.436;2023-05-20T07:25:10;16.20;99.90
4081;DHT22;2055;50.074;8.436;2023-05-20T07:27:35;16.00;99.90
4081;DHT22;2055;50.074;8.436;2023-05-20T07:30:02;16.10;99.90
4081;DHT22;2055;50.074;8.436;2023-05-20T07:32:27;16.20;99.90
4081;DHT22;2055;50.074;8.436;2023-05-20T07:34:53;16.20;99.90
4081;DHT22;2055;50.074;8.436;2023-05-20T07:37:19;16.30;99.90
4081;DHT22;2055;50.074;8.436;2023-05-20T07:39:45;16.30;99.90
4081;DHT22;2055;50.074;8.436;2023-05-20T07:42:10;16.10;99.90
4081;DHT22;2055;50.074;8.436;2023-05-20T07:44:36;16.10;99.90
4081;DHT22;2055;50.074;8.436;2023-05-20T07:47:02;16.10;99.90
4081;DHT22;2055;50.074;8.436;2023-05-20T07:49:27;16.00;99.90
4081;DHT22;2055;50.074;8.436;2023-05-20T07:51:54;15.90;99.90
4081;DHT22;2055;50.074;8.436;2023-05-20T07:54:20;16.10;99.90
4081;DHT22;2055;50.074;8.436;2023-05-20T07:56:54;16.20;99.90
4081;DHT22;2055;50.074;8.436;2023-05-20T07:59:19;16.50;99.90
4081;DHT22;2055;50.074;8.436;2023-05-20T08:01:46;17.40;99.90
4081;DHT22;2055;50.074;8.436;2023-05-20T08:04:12;16.80;99.90
4081;DHT22;2055;50.074;8.436;2023-05-20T08:06:37;16.80;99.90
4081;DHT22;2055;50.074;8.436;2023-05-20T08:09:04;16.80;99.90
4081;DHT22;2055;50.074;8.436;2023-05-20T08:11:29;16.90;99.90
4081;DHT22;2055;50.074;8.436;2023-05-20T08:13:55;17.00;99.90
4081;DHT22;2055;50.074;8.436;2023-05-20T08:16:21;17.20;99.90
4081;DHT22;2055;50.074;8.436;2023-05-20T08:18:46;19.90;99.90
4081;DHT22;2055;50.074;8.436;2023-05-20T08:21:12;17.60;99.90
4081;DHT22;2055;50.074;8.436;2023-05-20T08:23:38;17.70;99.90
4081;DHT22;2055;50.074;8.436;2023-05-20T08:26:05;17.40;99.90
4081;DHT22;2055;50.074;8.436;2023-05-20T08:28:30;17.60;99.90
4081;DHT22;2055;50.074;8.436;2023-05-20T08:30:56;18.00;99.90
4081;DHT22;2055;50.074;8.436;2023-05-20T08:33:24;20.10;99.90
4081;DHT22;2055;50.074;8.436;2023-05-20T08:35:50;18.70;99.90
4081;DHT22;2055;50.074;8.436;2023-05-20T08:38:15;18.50;99.90
4081;DHT22;2055;50.074;8.436;2023-05-20T08:40:41;18.80;99.90
4081;DHT22;2055;50.074;8.436;2023-05-20T08:43:06;18.50;99.90
4081;DHT22;2055;50.074;8.436;2023-05-20T08:45:33;18.30;99.90
4081;DHT22;2055;50.074;8.436;2023-05-20T08:48:00;18.10;99.90
4081;DHT22;2055;50.074;8.436;2023-05-20T08:50:27;18.10;99.90
4081;DHT22;2055;50.074;8.436;2023-05-20T08:52:52;18.10;99.90
4081;DHT22;2055;50.074;8.436;2023-05-20T08:57:59;18.10;99.90
4081;DHT22;2055;50.074;8.436;2023-05-20T09:00:24;18.00;99.90
4081;DHT22;2055;50.074;8.436;2023-05-20T09:02:53;17.90;99.90
4081;DHT22;2055;50.074;8.436;2023-05-20T09:05:19;18.10;99.90
4081;DHT22;2055;50.074;8.436;2023-05-20T09:07:45;18.30;99.90
4081;DHT22;2055;50.074;8.436;2023-05-20T09:10:11;18.80;99.90
4081;DHT22;2055;50.074;8.436;2023-05-20T09:12:37;18.70;99.90
4081;DHT22;2055;50.074;8.436;2023-05-20T09:15:04;18.50;99.90
4081;DHT22;2055;50.074;8.436;2023-05-20T09:17:30;18.40;99.90
4081;DHT22;2055;50.074;8.436;2023-05-20T09:19:55;18.30;99.90
4081;DHT22;2055;50.074;8.436;2023-05-20T09:22:25;18.40;99.90
4081;DHT22;2055;50.074;8.436;2023-05-20T09:24:51;19.20;99.90
4081;DHT22;2055;50.074;8.436;2023-05-20T09:27:21;19.00;99.90
4081;DHT22;2055;50.074;8.436;2023-05-20T09:29:47;18.70;99.90
4081;DHT22;2055;50.074;8.436;2023-05-20T09:32:13;18.80;99.90
4081;DHT22;2055;50.074;8.436;2023-05-20T09:34:40;19.30;99.90
4081;DHT22;2055;50.074;8.436;2023-05-20T09:37:10;19.60;99.90
4081;DHT22;2055;50.074;8.436;2023-05-20T09:39:56;19.70;99.90
4081;DHT22;2055;50.074;8.436;2023-05-20T09:42:34;20.40;99.90
4081;DHT22;2055;50.074;8.436;2023-05-20T09:45:02;20.50;99.90
4081;DHT22;2055;50.074;8.436;2023-05-20T09:47:29;20.70;99.90
4081;DHT22;2055;50.074;8.436;2023-05-20T09:49:56;20.50;99.90
4081;DHT22;2055;50.074;8.436;2023-05-20T09:52:22;21.30;99.90
4081;DHT22;2055;50.074;8.436;2023-05-20T09:54:48;21.20;99.90
4081;DHT22;2055;50.074;8.436;2023-05-20T09:57:15;20.90;99.90
4081;DHT22;2055;50.074;8.436;2023-05-20T09:59:41;20.90;99.90
4081;DHT22;2055;50.074;8.436;2023-05-20T10:02:07;20.70;99.90
4081;DHT22;2055;50.074;8.436;2023-05-20T10:04:36;20.80;99.90
4081;DHT22;2055;50.074;8.436;2023-05-20T10:07:23;21.00;99.90
4081;DHT22;2055;50.074;8.436;2023-05-20T10:20:52;21.00;99.90
4081;DHT22;2055;50.074;8.436;2023-05-20T10:23:22;20.80;99.90
4081;DHT22;2055;50.074;8.436;2023-05-20T10:25:52;20.80;99.90
4081;DHT22;2055;50.074;8.436;2023-05-20T10:30:55;22.00;99.90
4081;DHT22;2055;50.074;8.436;2023-05-20T10:33:21;22.00;99.90
4081;DHT22;2055;50.074;8.436;2023-05-20T10:35:49;21.70;99.90
4081;DHT22;2055;50.074;8.436;2023-05-20T10:38:16;21.50;99.90
4081;DHT22;2055;50.074;8.436;2023-05-20T10:40:42;21.50;99.90
4081;DHT22;2055;50.074;8.436;2023-05-20T10:43:41;21.40;99.90
4081;DHT22;2055;50.074;8.436;2023-05-20T10:46:00;21.40;99.90
4081;DHT22;2055;50.074;8.436;2023-05-20T10:48:30;21.40;99.90
4081;DHT22;2055;50.074;8.436;2023-05-20T10:50:57;21.40;99.90
4081;DHT22;2055;50.074;8.436;2023-05-20T10:53:26;21.10;99.90
4081;DHT22;2055;50.074;8.436;2023-05-20T10:55:53;21.50;99.90
4081;DHT22;2055;50.074;8.436;2023-05-20T10:58:23;21.50;99.90
4081;DHT22;2055;50.074;8.436;2023-05-20T11:00:52;21.30;99.90
4081;DHT22;2055;50.074;8.436;2023-05-20T11:03:21;21.10;99.90
4081;DHT22;2055;50.074;8.436;2023-05-20T11:05:47;20.90;99.90
4081;DHT22;2055;50.074;8.436;2023-05-20T11:08:13;20.90;99.90
4081;DHT22;2055;50.074;8.436;2023-05-20T11:10:40;20.40;99.90
4081;DHT22;2055;50.074;8.436;2023-05-20T11:13:06;20.40;99.90
4081;DHT22;2055;50.074;8.436;2023-05-20T11:15:34;20.90;99.90
4081;DHT22;2055;50.074;8.436;2023-05-20T11:18:01;21.40;99.90
4081;DHT22;2055;50.074;8.436;2023-05-20T11:20:28;21.10;99.90
4081;DHT22;2055;50.074;8.436;2023-05-20T11:22:54;21.30;99.90
4081;DHT22;2055;50.074;8.436;2023-05-20T11:25:20;20.90;99.90
4081;DHT22;2055;50.074;8.436;2023-05-20T11:27:48;20.80;99.90
4081;DHT22;2055;50.074;8.436;2023-05-20T11:30:15;21.10;99.90
4081;DHT22;2055;50.074;8.436;2023-05-20T11:32:43;21.60;99.90
4081;DHT22;2055;50.074;8.436;2023-05-20T11:35:22;22.20;99.90
4081;DHT22;2055;50.074;8.436;2023-05-20T11:37:55;22.20;99.90
4081;DHT22;2055;50.074;8.436;2023-05-20T11:40:25;22.40;99.90
4081;DHT22;2055;50.074;8.436;2023-05-20T11:42:55;22.00;99.90
4081;DHT22;2055;50.074;8.436;2023-05-20T11:45:23;21.70;99.90
4081;DHT22;2055;50.074;8.436;2023-05-20T11:48:02;22.10;99.90
4081;DHT22;2055;50.074;8.436;2023-05-20T11:50:39;22.00;99.90
4081;DHT22;2055;50.074;8.436;2023-05-20T11:53:24;21.80;99.90
4081;DHT22;2055;50.074;8.436;2023-05-20T11:55:55;21.90;99.90
4081;DHT22;2055;50.074;8.436;2023-05-20T11:58:29;22.20;99.90
4081;DHT22;2055;50.074;8.436;2023-05-20T12:00:55;22.00;99.90
4081;DHT22;2055;50.074;8.436;2023-05-20T12:03:20;22.40;99.90
4081;DHT22;2055;50.074;8.436;2023-05-20T12:05:46;22.30;99.90
4081;DHT22;2055;50.074;8.436;2023-05-20T12:08:13;22.60;99.90
4081;DHT22;2055;50.074;8.436;2023-05-20T12:10:38;22.60;99.90
4081;DHT22;2055;50.074;8.436;2023-05-20T12:13:04;22.80;99.90
4081;DHT22;2055;50.074;8.436;2023-05-20T12:15:36;22.80;99.90
4081;DHT22;2055;50.074;8.436;2023-05-20T12:18:02;22.60;99.90
4081;DHT22;2055;50.074;8.436;2023-05-20T12:20:28;22.50;99.90
4081;DHT22;2055;50.074;8.436;2023-05-20T12:22:55;21.90;99.90
4081;DHT22;2055;50.074;8.436;2023-05-20T12:25:21;22.40;99.90
4081;DHT22;2055;50.074;8.436;2023-05-20T12:27:48;22.00;99.90
4081;DHT22;2055;50.074;8.436;2023-05-20T12:30:16;22.70;99.90
4081;DHT22;2055;50.074;8.436;2023-05-20T12:32:42;22.40;99.90
4081;DHT22;2055;50.074;8.436;2023-05-20T12:35:08;22.10;99.90
4081;DHT22;2055;50.074;8.436;2023-05-20T12:37:35;22.50;99.90
4081;DHT22;2055;50.074;8.436;2023-05-20T12:40:01;23.20;99.90
4081;DHT22;2055;50.074;8.436;2023-05-20T12:42:33;23.20;99.90
4081;DHT22;2055;50.074;8.436;2023-05-20T12:44:58;23.10;99.90
4081;DHT22;2055;50.074;8.436;2023-05-20T12:47:24;23.20;99.90
4081;DHT22;2055;50.074;8.436;2023-05-20T12:49:49;22.90;99.90
4081;DHT22;2055;50.074;8.436;2023-05-20T12:52:15;22.90;99.90
4081;DHT22;2055;50.074;8.436;2023-05-20T12:54:40;22.90;99.90
4081;DHT22;2055;50.074;8.436;2023-05-20T12:57:06;23.40;99.90
4081;DHT22;2055;50.074;8.436;2023-05-20T12:59:31;22.90;99.90
4081;DHT22;2055;50.074;8.436;2023-05-20T13:01:57;23.10;99.90
4081;DHT22;2055;50.074;8.436;2023-05-20T13:04:22;23.00;99.90
4081;DHT22;2055;50.074;8.436;2023-05-20T13:06:49;23.00;99.90
4081;DHT22;2055;50.074;8.436;2023-05-20T13:09:14;23.20;99.90
4081;DHT22;2055;50.074;8.436;2023-05-20T13:11:40;23.20;99.90
4081;DHT22;2055;50.074;8.436;2023-05-20T13:14:05;23.60;99.90
4081;DHT22;2055;50.074;8.436;2023-05-20T13:16:31;23.80;99.90
4081;DHT22;2055;50.074;8.436;2023-05-20T13:18:57;24.20;99.90
4081;DHT22;2055;50.074;8.436;2023-05-20T13:21:22;24.00;99.90
4081;DHT22;2055;50.074;8.436;2023-05-20T13:23:48;23.80;99.90
4081;DHT22;2055;50.074;8.436;2023-05-20T13:26:13;23.90;99.90
4081;DHT22;2055;50.074;8.436;2023-05-20T13:28:40;24.10;99.90
4081;DHT22;2055;50.074;8.436;2023-05-20T13:31:06;24.20;99.90
4081;DHT22;2055;50.074;8.436;2023-05-20T13:33:32;24.20;99.90
4081;DHT22;2055;50.074;8.436;2023-05-20T13:35:57;24.10;99.90
4081;DHT22;2055;50.074;8.436;2023-05-20T13:38:23;24.50;99.90
4081;DHT22;2055;50.074;8.436;2023-05-20T13:40:48;24.60;99.90
4081;DHT22;2055;50.074;8.436;2023-05-20T13:43:14;24.10;99.90
4081;DHT22;2055;50.074;8.436;2023-05-20T13:45:40;24.50;99.90
4081;DHT22;2055;50.074;8.436;2023-05-20T13:48:06;24.80;99.90
4081;DHT22;2055;50.074;8.436;2023-05-20T13:50:31;24.10;99.90
4081;DHT22;2055;50.074;8.436;2023-05-20T13:52:57;23.90;99.90
4081;DHT22;2055;50.074;8.436;2023-05-20T13:55:22;23.90;99.90
4081;DHT22;2055;50.074;8.436;2023-05-20T13:57:48;24.10;99.90
4081;DHT22;2055;50.074;8.436;2023-05-20T14:00:14;24.30;99.90
4081;DHT22;2055;50.074;8.436;2023-05-20T14:02:39;24.70;99.90
4081;DHT22;2055;50.074;8.436;2023-05-20T14:05:05;25.10;99.90
4081;DHT22;2055;50.074;8.436;2023-05-20T14:07:32;24.30;99.90
4081;DHT22;2055;50.074;8.436;2023-05-20T14:09:57;24.40;99.90
4081;DHT22;2055;50.074;8.436;2023-05-20T14:12:23;24.40;99.90
4081;DHT22;2055;50.074;8.436;2023-05-20T14:14:49;24.40;99.90
4081;DHT22;2055;50.074;8.436;2023-05-20T14:17:15;24.50;99.90
4081;DHT22;2055;50.074;8.436;2023-05-20T14:19:40;24.40;99.90
4081;DHT22;2055;50.074;8.436;2023-05-20T14:22:06;24.20;99.90
4081;DHT22;2055;50.074;8.436;2023-05-20T14:24:32;24.20;99.90
4081;DHT22;2055;50.074;8.436;2023-05-20T14:26:57;24.20;99.90
4081;DHT22;2055;50.074;8.436;2023-05-20T14:29:23;24.00;99.90
4081;DHT22;2055;50.074;8.436;2023-05-20T14:31:48;24.60;99.90
4081;DHT22;2055;50.074;8.436;2023-05-20T14:34:14;24.70;99.90
4081;DHT22;2055;50.074;8.436;2023-05-20T14:36:39;24.50;99.90
4081;DHT22;2055;50.074;8.436;2023-05-20T14:39:05;24.10;99.90
4081;DHT22;2055;50.074;8.436;2023-05-20T14:41:30;23.50;99.90
4081;DHT22;2055;50.074;8.436;2023-05-20T14:43:56;23.00;99.90
4081;DHT22;2055;50.074;8.436;2023-05-20T14:46:22;23.90;99.90
4081;DHT22;2055;50.074;8.436;2023-05-20T14:48:48;24.00;99.90
4081;DHT22;2055;50.074;8.436;2023-05-20T14:51:14;23.60;99.90
4081;DHT22;2055;50.074;8.436;2023-05-20T14:53:39;23.80;99.90
4081;DHT22;2055;50.074;8.436;2023-05-20T14:56:05;24.00;99.90
4081;DHT22;2055;50.074;8.436;2023-05-20T14:58:30;23.70;99.90
4081;DHT22;2055;50.074;8.436;2023-05-20T15:00:56;24.10;99.90
4081;DHT22;2055;50.074;8.436;2023-05-20T15:03:21;24.20;99.90
4081;DHT22;2055;50.074;8.436;2023-05-20T15:05:52;24.80;99.90
4081;DHT22;2055;50.074;8.436;2023-05-20T15:08:19;24.30;99.90
4081;DHT22;2055;50.074;8.436;2023-05-20T15:10:45;22.90;99.90
4081;DHT22;2055;50.074;8.436;2023-05-20T15:13:10;23.40;99.90
4081;DHT22;2055;50.074;8.436;2023-05-20T15:15:36;24.10;99.90
4081;DHT22;2055;50.074;8.436;2023-05-20T15:18:01;24.90;99.90
4081;DHT22;2055;50.074;8.436;2023-05-20T15:20:27;25.10;99.90
4081;DHT22;2055;50.074;8.436;2023-05-20T15:22:53;25.60;99.90
4081;DHT22;2055;50.074;8.436;2023-05-20T15:25:18;25.60;99.90
4081;DHT22;2055;50.074;8.436;2023-05-20T15:27:44;24.80;99.90
4081;DHT22;2055;50.074;8.436;2023-05-20T15:30:10;24.60;99.90
4081;DHT22;2055;50.074;8.436;2023-05-20T15:32:35;25.60;99.90
4081;DHT22;2055;50.074;8.436;2023-05-20T15:35:01;26.20;99.90
4081;DHT22;2055;50.074;8.436;2023-05-20T15:37:28;26.00;99.90
4081;DHT22;2055;50.074;8.436;2023-05-20T15:39:53;26.00;99.90
4081;DHT22;2055;50.074;8.436;2023-05-20T15:42:19;25.60;99.90
4081;DHT22;2055;50.074;8.436;2023-05-20T15:44:46;24.80;99.90
4081;DHT22;2055;50.074;8.436;2023-05-20T15:47:11;24.70;99.90
4081;DHT22;2055;50.074;8.436;2023-05-20T15:49:37;24.10;99.90
4081;DHT22;2055;50.074;8.436;2023-05-20T15:52:03;24.20;99.90
4081;DHT22;2055;50.074;8.436;2023-05-20T15:54:29;24.10;99.90
4081;DHT22;2055;50.074;8.436;2023-05-20T15:56:56;24.50;99.90
4081;DHT22;2055;50.074;8.436;2023-05-20T15:59:22;24.50;99.90
4081;DHT22;2055;50.074;8.436;2023-05-20T16:01:47;24.00;99.90
4081;DHT22;2055;50.074;8.436;2023-05-20T16:04:13;24.00;99.90
4081;DHT22;2055;50.074;8.436;2023-05-20T16:06:38;23.50;99.90
4081;DHT22;2055;50.074;8.436;2023-05-20T16:09:04;23.80;99.90
4081;DHT22;2055;50.074;8.436;2023-05-20T16:11:30;24.10;99.90
4081;DHT22;2055;50.074;8.436;2023-05-20T16:13:56;24.00;99.90